Polaris — JD2797 — position and weather

sailwx.info

Track history (hours):
 
Tides and Currents Weather Stations Pressure Air Temp Water Temp Dewpoint Dewpoint Depression Visibility Wind Speed Wind Dir Waves Ship Positions

Polaris

Last reported at 2014-Aug-22 19:33 UTC. Time now 2014-Aug-22 19:46 UTC.
Position N 35°27' E 139°40'.

Length 26 m.

MMSI: 431000764.

Date/timePositionNaut miles runAvg speedWind from/ knotsBaromVisibWave heightAir tempDewpointWater temp
2014-Aug-22 19:33N 35°27' E 139°40'0 0.0
2014-Aug-22 01:33N 35°27' E 139°40'1110.5
2014-Aug-22 00:33N 35°17' E 139°44'3 2.8
2014-Aug-21 23:33N 35°19' E 139°43'1212.2
2014-Aug-21 22:33N 35°30' E 139°51'10 9.9
2014-Aug-21 21:33N 35°35' E 140°02'3 3.4
2014-Aug-21 20:33N 35°35' E 140°06'10 9.9
2014-Aug-21 19:33N 35°31' E 139°55'1313.3
2014-Aug-21 18:33N 35°27' E 139°39'2 0.1
2014-Aug-20 22:33N 35°27' E 139°41'4 3.7
2014-Aug-20 21:33N 35°30' E 139°44'4 4.4
2014-Aug-20 20:33N 35°27' E 139°40'0 0.4
2014-Aug-20 19:34N 35°27' E 139°40'0 0.0
2014-Aug-20 18:33N 35°27' E 139°40'0 0.0
2014-Aug-20 17:34N 35°27' E 139°40'0 0.0
2014-Aug-20 16:34N 35°27' E 139°40'0 0.0
2014-Aug-20 15:33N 35°27' E 139°40'0 0.0
2014-Aug-20 14:33N 35°27' E 139°40'0 0.0
2014-Aug-20 13:33N 35°27' E 139°40'0 0.0
2014-Aug-20 12:34N 35°27' E 139°40'0 0.0
2014-Aug-20 11:33N 35°27' E 139°40'0 0.0
2014-Aug-20 10:33N 35°27' E 139°40'0 0.0
2014-Aug-20 09:33N 35°27' E 139°40'0 0.0
2014-Aug-20 08:33N 35°27' E 139°40'0 0.0
2014-Aug-20 07:33N 35°27' E 139°40'0 0.0
2014-Aug-20 06:34N 35°27' E 139°40'0 0.0
2014-Aug-19 04:34N 35°27' E 139°40'1312.6
2014-Aug-19 03:33N 35°15' E 139°45'6 6.1
2014-Aug-19 02:33N 35°21' E 139°42'6 5.8
2014-Aug-19 01:33N 35°26' E 139°45'3 3.4
2014-Aug-19 00:33N 35°29' E 139°42'3 3.2
2014-Aug-18 23:33N 35°27' E 139°40'2 0.0
2014-Aug-17 02:34N 35°26' E 139°42'9 9.1
2014-Aug-17 01:33N 35°18' E 139°45'8 7.5
2014-Aug-17 00:33N 35°10' E 139°47'1313.2
2014-Aug-16 23:34N 35°22' E 139°41'4 4.4
2014-Aug-16 22:33N 35°27' E 139°40'0 0.0
2014-Aug-16 21:33N 35°27' E 139°40'0 0.0
2014-Aug-16 20:33N 35°27' E 139°40'0 0.0
2014-Aug-16 19:33N 35°27' E 139°40'0 0.0
2014-Aug-16 18:33N 35°27' E 139°40'0 0.0
2014-Aug-16 17:33N 35°27' E 139°40'0 0.0
2014-Aug-16 16:33N 35°27' E 139°40'0 0.0
2014-Aug-16 15:33N 35°27' E 139°40'0 0.0
2014-Aug-16 14:33N 35°27' E 139°40'0 0.0
2014-Aug-16 13:33N 35°27' E 139°40'0 0.0
2014-Aug-16 12:33N 35°27' E 139°40'6 6.0
2014-Aug-16 11:34N 35°21' E 139°41'6 6.2
2014-Aug-16 10:33N 35°16' E 139°46'1111.4
2014-Aug-16 09:33N 35°27' E 139°43'3 2.6
2014-Aug-16 08:33N 35°27' E 139°40'0 0.0
2014-Aug-15 22:15N 35°27' E 139°40'6 8.6
2014-Aug-15 21:33N 35°24' E 139°46'1111.4
2014-Aug-15 20:33N 35°12' E 139°47'5 4.9
2014-Aug-15 19:33N 35°17' E 139°44'1110.8
2014-Aug-15 18:34N 35°27' E 139°40'0 0.1
2014-Aug-15 17:33N 35°27' E 139°40'0 0.0
2014-Aug-15 16:33N 35°27' E 139°40'0 0.0
2014-Aug-15 15:33N 35°27' E 139°40'0 0.0
2014-Aug-15 14:33N 35°27' E 139°40'0 0.0
2014-Aug-15 13:33N 35°27' E 139°40'0 0.0
2014-Aug-15 12:33N 35°27' E 139°40'0 0.0
2014-Aug-15 11:33N 35°27' E 139°40'0 0.0
2014-Aug-13 22:09N 35°27' E 139°40'2 4.0
2014-Aug-13 21:33N 35°25' E 139°42'1313.3
2014-Aug-13 20:33N 35°12' E 139°46'1211.9
2014-Aug-13 19:33N 35°24' E 139°43'3 3.3
2014-Aug-13 18:33N 35°27' E 139°41'1 0.1
2014-Aug-13 04:33N 35°27' E 139°40'0 0.0
2014-Aug-13 03:33N 35°27' E 139°40'6 6.1
2014-Aug-13 02:34N 35°23' E 139°46'1111.2
2014-Aug-13 01:33N 35°12' E 139°47'1 1.0
2014-Aug-13 00:33N 35°12' E 139°46'2 2.0
2014-Aug-12 23:34N 35°14' E 139°44'2 1.7
2014-Aug-12 22:33N 35°13' E 139°46'1212.0
2014-Aug-12 21:33N 35°25' E 139°44'2 2.4
2014-Aug-12 20:33N 35°27' E 139°42'  
Track history (hours):
 
Tides and Currents Weather Stations Pressure Air Temp Water Temp Dewpoint Dewpoint Depression Visibility Wind Speed Wind Dir Waves Ship Positions

Polaris

Last reported at 2014-Aug-22 19:33 UTC. Time now 2014-Aug-22 19:46 UTC.
Position N 35°27' E 139°40'.

Length 26 m.

MMSI: 431000764.

Date/timePositionNaut miles runAvg speedWind from/ knotsBaromVisibWave heightAir tempDewpointWater temp
2014-Aug-22 19:33N 35°27' E 139°40'0 0.0
2014-Aug-22 01:33N 35°27' E 139°40'1110.5
2014-Aug-22 00:33N 35°17' E 139°44'3 2.8
2014-Aug-21 23:33N 35°19' E 139°43'1212.2
2014-Aug-21 22:33N 35°30' E 139°51'10 9.9
2014-Aug-21 21:33N 35°35' E 140°02'3 3.4
2014-Aug-21 20:33N 35°35' E 140°06'10 9.9
2014-Aug-21 19:33N 35°31' E 139°55'1313.3
2014-Aug-21 18:33N 35°27' E 139°39'2 0.1
2014-Aug-20 22:33N 35°27' E 139°41'4 3.7
2014-Aug-20 21:33N 35°30' E 139°44'4 4.4
2014-Aug-20 20:33N 35°27' E 139°40'0 0.4
2014-Aug-20 19:34N 35°27' E 139°40'0 0.0
2014-Aug-20 18:33N 35°27' E 139°40'0 0.0
2014-Aug-20 17:34N 35°27' E 139°40'0 0.0
2014-Aug-20 16:34N 35°27' E 139°40'0 0.0
2014-Aug-20 15:33N 35°27' E 139°40'0 0.0
2014-Aug-20 14:33N 35°27' E 139°40'0 0.0
2014-Aug-20 13:33N 35°27' E 139°40'0 0.0
2014-Aug-20 12:34N 35°27' E 139°40'0 0.0
2014-Aug-20 11:33N 35°27' E 139°40'0 0.0
2014-Aug-20 10:33N 35°27' E 139°40'0 0.0
2014-Aug-20 09:33N 35°27' E 139°40'0 0.0
2014-Aug-20 08:33N 35°27' E 139°40'0 0.0
2014-Aug-20 07:33N 35°27' E 139°40'0 0.0
2014-Aug-20 06:34N 35°27' E 139°40'0 0.0
2014-Aug-19 04:34N 35°27' E 139°40'1312.6
2014-Aug-19 03:33N 35°15' E 139°45'6 6.1
2014-Aug-19 02:33N 35°21' E 139°42'6 5.8
2014-Aug-19 01:33N 35°26' E 139°45'3 3.4
2014-Aug-19 00:33N 35°29' E 139°42'3 3.2
2014-Aug-18 23:33N 35°27' E 139°40'2 0.0
2014-Aug-17 02:34N 35°26' E 139°42'9 9.1
2014-Aug-17 01:33N 35°18' E 139°45'8 7.5
2014-Aug-17 00:33N 35°10' E 139°47'1313.2
2014-Aug-16 23:34N 35°22' E 139°41'4 4.4
2014-Aug-16 22:33N 35°27' E 139°40'0 0.0
2014-Aug-16 21:33N 35°27' E 139°40'0 0.0
2014-Aug-16 20:33N 35°27' E 139°40'0 0.0
2014-Aug-16 19:33N 35°27' E 139°40'0 0.0
2014-Aug-16 18:33N 35°27' E 139°40'0 0.0
2014-Aug-16 17:33N 35°27' E 139°40'0 0.0
2014-Aug-16 16:33N 35°27' E 139°40'0 0.0
2014-Aug-16 15:33N 35°27' E 139°40'0 0.0
2014-Aug-16 14:33N 35°27' E 139°40'0 0.0
2014-Aug-16 13:33N 35°27' E 139°40'0 0.0
2014-Aug-16 12:33N 35°27' E 139°40'6 6.0
2014-Aug-16 11:34N 35°21' E 139°41'6 6.2
2014-Aug-16 10:33N 35°16' E 139°46'1111.4
2014-Aug-16 09:33N 35°27' E 139°43'3 2.6
2014-Aug-16 08:33N 35°27' E 139°40'0 0.0
2014-Aug-15 22:15N 35°27' E 139°40'6 8.6
2014-Aug-15 21:33N 35°24' E 139°46'1111.4
2014-Aug-15 20:33N 35°12' E 139°47'5 4.9
2014-Aug-15 19:33N 35°17' E 139°44'1110.8
2014-Aug-15 18:34N 35°27' E 139°40'0 0.1
2014-Aug-15 17:33N 35°27' E 139°40'0 0.0
2014-Aug-15 16:33N 35°27' E 139°40'0 0.0
2014-Aug-15 15:33N 35°27' E 139°40'0 0.0
2014-Aug-15 14:33N 35°27' E 139°40'0 0.0
2014-Aug-15 13:33N 35°27' E 139°40'0 0.0
2014-Aug-15 12:33N 35°27' E 139°40'0 0.0
2014-Aug-15 11:33N 35°27' E 139°40'0 0.0
2014-Aug-13 22:09N 35°27' E 139°40'2 4.0
2014-Aug-13 21:33N 35°25' E 139°42'1313.3
2014-Aug-13 20:33N 35°12' E 139°46'1211.9
2014-Aug-13 19:33N 35°24' E 139°43'3 3.3
2014-Aug-13 18:33N 35°27' E 139°41'1 0.1
2014-Aug-13 04:33N 35°27' E 139°40'0 0.0
2014-Aug-13 03:33N 35°27' E 139°40'6 6.1
2014-Aug-13 02:34N 35°23' E 139°46'1111.2
2014-Aug-13 01:33N 35°12' E 139°47'1 1.0
2014-Aug-13 00:33N 35°12' E 139°46'2 2.0
2014-Aug-12 23:34N 35°14' E 139°44'2 1.7
2014-Aug-12 22:33N 35°13' E 139°46'1212.0
2014-Aug-12 21:33N 35°25' E 139°44'2 2.4
2014-Aug-12 20:33N 35°27' E 139°42'  

Dump ship's entire track history